sensor_id;sensor_type;location;lat;lon;timestamp;pressure;altitude;pressure_sealevel;temperature;humidity
54948;BME280;41113;41.882;12.530;2022-09-20T00:01:09;100859.88;;;20.19;70.93
54948;BME280;41113;41.882;12.530;2022-09-20T00:03:36;100862.81;;;20.18;70.64
54948;BME280;41113;41.882;12.530;2022-09-20T00:06:03;100860.34;;;20.23;70.24
54948;BME280;41113;41.882;12.530;2022-09-20T00:08:29;100862.88;;;20.25;70.61
54948;BME280;41113;41.882;12.530;2022-09-20T00:11:09;100864.50;;;20.19;70.64
54948;BME280;41113;41.882;12.530;2022-09-20T00:13:36;100865.84;;;20.30;69.69
54948;BME280;41113;41.882;12.530;2022-09-20T00:16:09;100857.09;;;20.34;69.69
54948;BME280;41113;41.882;12.530;2022-09-20T00:18:35;100857.16;;;20.41;69.18
54948;BME280;41113;41.882;12.530;2022-09-20T00:21:02;100855.94;;;20.43;69.07
54948;BME280;41113;41.882;12.530;2022-09-20T00:23:28;100842.47;;;20.42;69.41
54948;BME280;41113;41.882;12.530;2022-09-20T00:26:01;100853.91;;;20.31;69.76
54948;BME280;41113;41.882;12.530;2022-09-20T00:28:28;100855.19;;;20.13;70.80
54948;BME280;41113;41.882;12.530;2022-09-20T00:30:54;100847.41;;;20.10;70.27
54948;BME280;41113;41.882;12.530;2022-09-20T00:33:22;100849.47;;;20.08;70.39
54948;BME280;41113;41.882;12.530;2022-09-20T00:35:48;100843.31;;;20.00;70.68
54948;BME280;41113;41.882;12.530;2022-09-20T00:38:14;100839.16;;;20.04;70.25
54948;BME280;41113;41.882;12.530;2022-09-20T00:40:40;100833.66;;;19.97;71.26
54948;BME280;41113;41.882;12.530;2022-09-20T00:43:06;100834.03;;;19.94;70.60
54948;BME280;41113;41.882;12.530;2022-09-20T00:45:32;100838.06;;;19.98;70.59
54948;BME280;41113;41.882;12.530;2022-09-20T00:48:13;100839.88;;;19.91;71.44
54948;BME280;41113;41.882;12.530;2022-09-20T00:50:43;100831.44;;;19.86;71.01
54948;BME280;41113;41.882;12.530;2022-09-20T00:53:15;100828.22;;;19.82;71.07
54948;BME280;41113;41.882;12.530;2022-09-20T00:55:48;100829.19;;;19.75;71.95
54948;BME280;41113;41.882;12.530;2022-09-20T00:58:17;100822.78;;;19.82;71.06
54948;BME280;41113;41.882;12.530;2022-09-20T01:00:45;100820.16;;;19.89;70.45
54948;BME280;41113;41.882;12.530;2022-09-20T01:03:11;100818.97;;;19.98;70.29
54948;BME280;41113;41.882;12.530;2022-09-20T01:05:39;100811.00;;;19.97;70.01
54948;BME280;41113;41.882;12.530;2022-09-20T01:08:07;100814.69;;;19.89;70.66
54948;BME280;41113;41.882;12.530;2022-09-20T01:10:34;100819.59;;;19.79;70.99
54948;BME280;41113;41.882;12.530;2022-09-20T01:13:00;100814.00;;;19.66;71.60
54948;BME280;41113;41.882;12.530;2022-09-20T01:15:27;100806.41;;;19.61;72.24
54948;BME280;41113;41.882;12.530;2022-09-20T01:17:57;100810.75;;;19.55;72.45
54948;BME280;41113;41.882;12.530;2022-09-20T01:20:31;100810.97;;;19.54;72.56
54948;BME280;41113;41.882;12.530;2022-09-20T01:28:32;100806.53;;;19.38;73.17
54948;BME280;41113;41.882;12.530;2022-09-20T01:33:47;100808.22;;;19.39;72.85
54948;BME280;41113;41.882;12.530;2022-09-20T01:36:31;100794.84;;;19.44;72.29
54948;BME280;41113;41.882;12.530;2022-09-20T01:39:11;100808.47;;;19.44;71.97
54948;BME280;41113;41.882;12.530;2022-09-20T01:41:50;100805.75;;;19.44;72.16
54948;BME280;41113;41.882;12.530;2022-09-20T01:46:55;100802.00;;;19.45;71.85
54948;BME280;41113;41.882;12.530;2022-09-20T02:00:25;100791.88;;;19.54;71.42
54948;BME280;41113;41.882;12.530;2022-09-20T02:05:45;100786.25;;;19.55;71.00
54948;BME280;41113;41.882;12.530;2022-09-20T02:08:33;100785.66;;;19.60;70.97
54948;BME280;41113;41.882;12.530;2022-09-20T02:21:37;100778.75;;;19.28;72.58
54948;BME280;41113;41.882;12.530;2022-09-20T02:46:33;100800.00;;;19.03;74.08
54948;BME280;41113;41.882;12.530;2022-09-20T02:52:16;100802.53;;;19.05;74.59
54948;BME280;41113;41.882;12.530;2022-09-20T02:57:47;100798.88;;;18.98;74.93
54948;BME280;41113;41.882;12.530;2022-09-20T03:00:23;100798.03;;;18.97;74.64
54948;BME280;41113;41.882;12.530;2022-09-20T03:06:07;100798.88;;;18.98;75.13
54948;BME280;41113;41.882;12.530;2022-09-20T03:20:22;100793.72;;;18.88;75.78
54948;BME280;41113;41.882;12.530;2022-09-20T03:23:00;100800.19;;;19.02;75.28
54948;BME280;41113;41.882;12.530;2022-09-20T03:36:43;100792.75;;;18.81;78.70
54948;BME280;41113;41.882;12.530;2022-09-20T03:39:50;100800.53;;;18.84;78.23
54948;BME280;41113;41.882;12.530;2022-09-20T03:42:27;100797.09;;;18.90;77.01
54948;BME280;41113;41.882;12.530;2022-09-20T03:47:41;100794.00;;;18.93;77.52
54948;BME280;41113;41.882;12.530;2022-09-20T04:03:31;100789.78;;;18.90;76.11
54948;BME280;41113;41.882;12.530;2022-09-20T04:11:47;100791.53;;;18.69;77.75
54948;BME280;41113;41.882;12.530;2022-09-20T04:20:02;100807.22;;;18.96;76.67
54948;BME280;41113;41.882;12.530;2022-09-20T04:22:30;100812.94;;;19.01;75.89
54948;BME280;41113;41.882;12.530;2022-09-20T04:24:59;100807.31;;;19.03;75.94
54948;BME280;41113;41.882;12.530;2022-09-20T04:27:43;100811.25;;;18.71;78.70
54948;BME280;41113;41.882;12.530;2022-09-20T04:30:31;100808.91;;;18.45;81.24
54948;BME280;41113;41.882;12.530;2022-09-20T04:33:17;100807.03;;;18.30;82.19
54948;BME280;41113;41.882;12.530;2022-09-20T04:39:19;100821.66;;;18.29;81.96
54948;BME280;41113;41.882;12.530;2022-09-20T04:54:02;100812.63;;;18.29;82.11
54948;BME280;41113;41.882;12.530;2022-09-20T05:05:59;100829.38;;;18.18;82.18
54948;BME280;41113;41.882;12.530;2022-09-20T05:17:29;100825.41;;;18.28;81.04
54948;BME280;41113;41.882;12.530;2022-09-20T05:25:28;100830.31;;;18.48;80.08
54948;BME280;41113;41.882;12.530;2022-09-20T05:28:05;100832.00;;;18.49;79.47
54948;BME280;41113;41.882;12.530;2022-09-20T05:30:43;100829.81;;;18.44;79.59
54948;BME280;41113;41.882;12.530;2022-09-20T05:58:01;100839.16;;;20.04;72.48
54948;BME280;41113;41.882;12.530;2022-09-20T06:00:28;100838.91;;;20.20;71.80
54948;BME280;41113;41.882;12.530;2022-09-20T06:03:15;100838.81;;;20.35;71.21
54948;BME280;41113;41.882;12.530;2022-09-20T06:05:57;100848.66;;;20.29;70.85
54948;BME280;41113;41.882;12.530;2022-09-20T06:14:55;100851.56;;;19.85;72.39
54948;BME280;41113;41.882;12.530;2022-09-20T06:17:41;100849.63;;;20.00;71.89
54948;BME280;41113;41.882;12.530;2022-09-20T06:22:44;100852.34;;;20.43;70.41
54948;BME280;41113;41.882;12.530;2022-09-20T06:25:15;100845.72;;;20.31;70.53
54948;BME280;41113;41.882;12.530;2022-09-20T06:30:17;100851.38;;;19.72;72.25
54948;BME280;41113;41.882;12.530;2022-09-20T06:35:42;100845.53;;;19.89;71.71
54948;BME280;41113;41.882;12.530;2022-09-20T06:40:56;100846.09;;;19.85;72.03
54948;BME280;41113;41.882;12.530;2022-09-20T06:43:40;100841.13;;;19.74;72.00
54948;BME280;41113;41.882;12.530;2022-09-20T06:46:07;100841.00;;;19.82;71.83
54948;BME280;41113;41.882;12.530;2022-09-20T06:48:32;100836.78;;;19.79;71.80
54948;BME280;41113;41.882;12.530;2022-09-20T06:50:59;100839.44;;;19.73;72.15
54948;BME280;41113;41.882;12.530;2022-09-20T06:53:29;100845.94;;;19.72;72.13
54948;BME280;41113;41.882;12.530;2022-09-20T06:55:55;100839.06;;;19.76;71.88
54948;BME280;41113;41.882;12.530;2022-09-20T06:58:21;100847.47;;;19.96;71.23
54948;BME280;41113;41.882;12.530;2022-09-20T07:00:47;100847.41;;;20.10;70.61
54948;BME280;41113;41.882;12.530;2022-09-20T07:03:12;100848.13;;;20.19;69.85
54948;BME280;41113;41.882;12.530;2022-09-20T07:05:38;100854.03;;;20.23;69.95
54948;BME280;41113;41.882;12.530;2022-09-20T07:08:04;100860.09;;;20.18;69.72
54948;BME280;41113;41.882;12.530;2022-09-20T07:10:30;100858.31;;;20.32;69.59
54948;BME280;41113;41.882;12.530;2022-09-20T07:12:59;100865.47;;;20.33;69.28
54948;BME280;41113;41.882;12.530;2022-09-20T07:15:31;100865.84;;;20.30;69.51
54948;BME280;41113;41.882;12.530;2022-09-20T07:17:57;100860.00;;;20.33;69.28
54948;BME280;41113;41.882;12.530;2022-09-20T07:20:24;100872.75;;;20.47;69.17
54948;BME280;41113;41.882;12.530;2022-09-20T07:22:50;100868.53;;;20.44;68.91
54948;BME280;41113;41.882;12.530;2022-09-20T07:25:15;100872.88;;;20.60;68.47
54948;BME280;41113;41.882;12.530;2022-09-20T07:27:43;100874.38;;;20.63;68.37
54948;BME280;41113;41.882;12.530;2022-09-20T07:30:11;100875.59;;;20.81;67.64
54948;BME280;41113;41.882;12.530;2022-09-20T07:32:37;100880.31;;;21.01;66.94
54948;BME280;41113;41.882;12.530;2022-09-20T07:35:04;100881.72;;;20.90;66.06
54948;BME280;41113;41.882;12.530;2022-09-20T07:37:29;100875.88;;;20.93;66.56
54948;BME280;41113;41.882;12.530;2022-09-20T07:39:55;100878.63;;;21.00;66.02
54948;BME280;41113;41.882;12.530;2022-09-20T07:42:20;100880.94;;;21.24;65.69
54948;BME280;41113;41.882;12.530;2022-09-20T07:44:45;100885.16;;;21.27;65.57
54948;BME280;41113;41.882;12.530;2022-09-20T07:47:11;100883.72;;;21.37;65.11
54948;BME280;41113;41.882;12.530;2022-09-20T07:49:39;100881.00;;;21.37;65.09
54948;BME280;41113;41.882;12.530;2022-09-20T07:52:05;100885.84;;;21.42;64.82
54948;BME280;41113;41.882;12.530;2022-09-20T07:54:32;100890.75;;;21.53;64.61
54948;BME280;41113;41.882;12.530;2022-09-20T07:56:57;100889.50;;;21.56;64.84
54948;BME280;41113;41.882;12.530;2022-09-20T07:59:23;100893.91;;;21.50;64.89
54948;BME280;41113;41.882;12.530;2022-09-20T08:01:50;100895.84;;;21.63;64.28
54948;BME280;41113;41.882;12.530;2022-09-20T08:04:15;100889.38;;;21.77;63.10
54948;BME280;41113;41.882;12.530;2022-09-20T08:06:42;100903.94;;;21.84;62.30
54948;BME280;41113;41.882;12.530;2022-09-20T08:09:09;100895.94;;;21.89;62.22
54948;BME280;41113;41.882;12.530;2022-09-20T08:11:35;100896.59;;;21.91;61.92
54948;BME280;41113;41.882;12.530;2022-09-20T08:14:03;100903.59;;;22.07;60.50
54948;BME280;41113;41.882;12.530;2022-09-20T08:16:30;100902.38;;;22.16;60.68
54948;BME280;41113;41.882;12.530;2022-09-20T08:18:58;100901.56;;;22.29;59.41
54948;BME280;41113;41.882;12.530;2022-09-20T08:21:30;100907.44;;;22.26;58.75
54948;BME280;41113;41.882;12.530;2022-09-20T08:23:57;100911.22;;;22.25;59.84
54948;BME280;41113;41.882;12.530;2022-09-20T08:26:24;100907.88;;;22.36;59.89
54948;BME280;41113;41.882;12.530;2022-09-20T08:28:52;100904.50;;;22.41;60.19
54948;BME280;41113;41.882;12.530;2022-09-20T08:31:19;100904.97;;;22.51;59.90
54948;BME280;41113;41.882;12.530;2022-09-20T08:33:46;100901.38;;;22.63;59.03
54948;BME280;41113;41.882;12.530;2022-09-20T08:36:14;100903.28;;;22.70;58.39
54948;BME280;41113;41.882;12.530;2022-09-20T08:38:40;100897.78;;;22.76;58.89
54948;BME280;41113;41.882;12.530;2022-09-20T08:41:10;100897.41;;;22.86;57.66
54948;BME280;41113;41.882;12.530;2022-09-20T08:43:45;100899.91;;;23.01;57.50
54948;BME280;41113;41.882;12.530;2022-09-20T08:46:14;100901.59;;;23.08;56.31
54948;BME280;41113;41.882;12.530;2022-09-20T08:48:41;100890.22;;;23.18;55.81
54948;BME280;41113;41.882;12.530;2022-09-20T08:51:12;100903.47;;;23.27;55.47
54948;BME280;41113;41.882;12.530;2022-09-20T08:53:53;100904.91;;;23.37;56.09
54948;BME280;41113;41.882;12.530;2022-09-20T08:56:20;100899.81;;;23.60;56.19
54948;BME280;41113;41.882;12.530;2022-09-20T08:58:46;100908.19;;;23.78;55.25
54948;BME280;41113;41.882;12.530;2022-09-20T09:01:18;100905.66;;;23.83;54.80
54948;BME280;41113;41.882;12.530;2022-09-20T09:03:44;100891.63;;;23.98;55.20
54948;BME280;41113;41.882;12.530;2022-09-20T09:06:12;100894.88;;;24.20;54.76
54948;BME280;41113;41.882;12.530;2022-09-20T09:08:41;100884.91;;;24.32;53.86
54948;BME280;41113;41.882;12.530;2022-09-20T09:11:13;100885.97;;;24.31;54.38
54948;BME280;41113;41.882;12.530;2022-09-20T09:13:47;100882.19;;;24.26;53.30
54948;BME280;41113;41.882;12.530;2022-09-20T09:16:20;100882.09;;;24.39;54.09
54948;BME280;41113;41.882;12.530;2022-09-20T09:18:47;100871.09;;;24.45;53.71
54948;BME280;41113;41.882;12.530;2022-09-20T09:21:24;100876.41;;;24.65;53.58
54948;BME280;41113;41.882;12.530;2022-09-20T09:26:40;100869.53;;;24.81;52.40
54948;BME280;41113;41.882;12.530;2022-09-20T09:29:13;100874.06;;;24.69;51.54
54948;BME280;41113;41.882;12.530;2022-09-20T09:31:39;100874.81;;;24.58;52.97
54948;BME280;41113;41.882;12.530;2022-09-20T09:34:22;100875.78;;;24.38;51.12
54948;BME280;41113;41.882;12.530;2022-09-20T09:36:48;100880.66;;;24.36;51.68
54948;BME280;41113;41.882;12.530;2022-09-20T09:39:24;100872.34;;;24.49;52.42
54948;BME280;41113;41.882;12.530;2022-09-20T09:41:50;100876.56;;;24.77;52.26
54948;BME280;41113;41.882;12.530;2022-09-20T09:44:31;100869.41;;;24.94;51.70
54948;BME280;41113;41.882;12.530;2022-09-20T09:46:58;100860.78;;;24.66;52.65
54948;BME280;41113;41.882;12.530;2022-09-20T09:52:12;100866.69;;;24.44;53.04
54948;BME280;41113;41.882;12.530;2022-09-20T09:54:49;100864.88;;;24.57;52.00
54948;BME280;41113;41.882;12.530;2022-09-20T10:00:12;100859.44;;;25.00;50.42
54948;BME280;41113;41.882;12.530;2022-09-20T10:08:43;100854.88;;;25.49;48.37
54948;BME280;41113;41.882;12.530;2022-09-20T10:16:59;100839.97;;;25.56;48.84
54948;BME280;41113;41.882;12.530;2022-09-20T10:25:10;100847.91;;;25.64;47.76
54948;BME280;41113;41.882;12.530;2022-09-20T10:30:19;100840.72;;;25.63;46.55
54948;BME280;41113;41.882;12.530;2022-09-20T10:32:57;100836.94;;;25.46;45.96
54948;BME280;41113;41.882;12.530;2022-09-20T10:36:14;100838.16;;;25.68;46.23
54948;BME280;41113;41.882;12.530;2022-09-20T10:38:39;100833.31;;;25.82;47.38
54948;BME280;41113;41.882;12.530;2022-09-20T10:41:31;100835.38;;;25.87;47.27
54948;BME280;41113;41.882;12.530;2022-09-20T10:47:33;100835.56;;;25.55;46.07
54948;BME280;41113;41.882;12.530;2022-09-20T10:50:17;100836.31;;;25.81;46.55
54948;BME280;41113;41.882;12.530;2022-09-20T10:53:05;100839.38;;;25.72;45.72
54948;BME280;41113;41.882;12.530;2022-09-20T10:55:40;100831.44;;;25.46;47.42
54948;BME280;41113;41.882;12.530;2022-09-20T11:04:16;100836.47;;;25.31;46.87
54948;BME280;41113;41.882;12.530;2022-09-20T11:07:10;100832.19;;;25.35;47.46
54948;BME280;41113;41.882;12.530;2022-09-20T11:09:42;100824.88;;;25.47;47.90
54948;BME280;41113;41.882;12.530;2022-09-20T11:12:11;100826.63;;;25.41;47.97
54948;BME280;41113;41.882;12.530;2022-09-20T11:14:45;100823.50;;;25.38;48.08
54948;BME280;41113;41.882;12.530;2022-09-20T11:17:25;100826.38;;;25.61;47.01
54948;BME280;41113;41.882;12.530;2022-09-20T11:20:05;100825.31;;;25.81;46.22
54948;BME280;41113;41.882;12.530;2022-09-20T11:23:05;100832.75;;;25.92;45.24
54948;BME280;41113;41.882;12.530;2022-09-20T11:25:42;100820.19;;;25.96;45.15
54948;BME280;41113;41.882;12.530;2022-09-20T11:28:30;100826.78;;;25.95;43.97
54948;BME280;41113;41.882;12.530;2022-09-20T11:36:18;100823.94;;;26.01;45.60
54948;BME280;41113;41.882;12.530;2022-09-20T11:39:04;100816.72;;;25.89;42.05
54948;BME280;41113;41.882;12.530;2022-09-20T11:41:35;100811.47;;;25.99;44.84
54948;BME280;41113;41.882;12.530;2022-09-20T11:44:12;100801.81;;;26.08;44.06
54948;BME280;41113;41.882;12.530;2022-09-20T11:46:50;100795.97;;;26.16;43.53
54948;BME280;41113;41.882;12.530;2022-09-20T11:49:36;100797.66;;;26.17;43.99
54948;BME280;41113;41.882;12.530;2022-09-20T11:57:42;100794.13;;;25.68;45.40
54948;BME280;41113;41.882;12.530;2022-09-20T12:00:08;100794.44;;;25.60;45.76
54948;BME280;41113;41.882;12.530;2022-09-20T12:02:45;100794.75;;;25.52;45.02
54948;BME280;41113;41.882;12.530;2022-09-20T12:05:38;100783.84;;;25.46;44.41
54948;BME280;41113;41.882;12.530;2022-09-20T12:08:16;100781.34;;;25.44;45.83
54948;BME280;41113;41.882;12.530;2022-09-20T12:10:55;100779.06;;;25.41;45.18
54948;BME280;41113;41.882;12.530;2022-09-20T12:13:24;100778.88;;;25.36;45.95
54948;BME280;41113;41.882;12.530;2022-09-20T12:16:15;100784.38;;;25.36;45.31
54948;BME280;41113;41.882;12.530;2022-09-20T12:21:19;100778.88;;;25.54;45.82
54948;BME280;41113;41.882;12.530;2022-09-20T12:28:47;100766.31;;;25.58;45.72
54948;BME280;41113;41.882;12.530;2022-09-20T12:34:27;100757.97;;;25.65;45.85
54948;BME280;41113;41.882;12.530;2022-09-20T12:42:04;100767.63;;;25.56;46.59
54948;BME280;41113;41.882;12.530;2022-09-20T12:44:53;100761.66;;;25.59;46.87
54948;BME280;41113;41.882;12.530;2022-09-20T12:47:28;100762.03;;;25.62;47.20
54948;BME280;41113;41.882;12.530;2022-09-20T12:49:56;100755.31;;;25.58;47.83
54948;BME280;41113;41.882;12.530;2022-09-20T12:55:53;100761.53;;;25.54;48.71
54948;BME280;41113;41.882;12.530;2022-09-20T12:58:38;100766.16;;;25.41;48.72
54948;BME280;41113;41.882;12.530;2022-09-20T13:03:46;100760.28;;;25.38;49.35
54948;BME280;41113;41.882;12.530;2022-09-20T13:11:11;100769.13;;;25.40;50.00
54948;BME280;41113;41.882;12.530;2022-09-20T13:13:50;100770.97;;;25.28;51.51
54948;BME280;41113;41.882;12.530;2022-09-20T13:18:58;100777.09;;;25.11;52.30
54948;BME280;41113;41.882;12.530;2022-09-20T13:21:26;100772.94;;;25.02;52.38
54948;BME280;41113;41.882;12.530;2022-09-20T13:23:52;100766.19;;;25.05;52.26
54948;BME280;41113;41.882;12.530;2022-09-20T13:26:24;100763.63;;;25.03;52.45
54948;BME280;41113;41.882;12.530;2022-09-20T13:28:53;100759.88;;;24.98;52.93
54948;BME280;41113;41.882;12.530;2022-09-20T13:33:46;100745.09;;;24.99;53.33
54948;BME280;41113;41.882;12.530;2022-09-20T13:36:12;100758.94;;;25.10;53.04
54948;BME280;41113;41.882;12.530;2022-09-20T13:38:38;100741.88;;;25.20;52.85
54948;BME280;41113;41.882;12.530;2022-09-20T13:41:06;100745.16;;;25.29;52.79
54948;BME280;41113;41.882;12.530;2022-09-20T13:43:44;100748.81;;;25.41;53.59
54948;BME280;41113;41.882;12.530;2022-09-20T13:48:36;100738.19;;;25.44;52.59
54948;BME280;41113;41.882;12.530;2022-09-20T13:51:02;100736.63;;;25.49;52.08
54948;BME280;41113;41.882;12.530;2022-09-20T13:53:28;100740.84;;;25.51;52.44
54948;BME280;41113;41.882;12.530;2022-09-20T13:55:55;100734.25;;;25.52;52.03
54948;BME280;41113;41.882;12.530;2022-09-20T14:00:58;100739.63;;;25.47;51.86
54948;BME280;41113;41.882;12.530;2022-09-20T14:03:26;100740.69;;;25.46;52.09
54948;BME280;41113;41.882;12.530;2022-09-20T14:05:59;100741.63;;;25.40;52.68
54948;BME280;41113;41.882;12.530;2022-09-20T14:08:32;100745.44;;;25.39;52.58
54948;BME280;41113;41.882;12.530;2022-09-20T14:11:20;100737.50;;;25.31;54.10
54948;BME280;41113;41.882;12.530;2022-09-20T14:13:51;100739.78;;;25.34;53.22
54948;BME280;41113;41.882;12.530;2022-09-20T14:16:21;100734.97;;;25.29;53.43
54948;BME280;41113;41.882;12.530;2022-09-20T14:18:49;100733.25;;;25.17;53.80
54948;BME280;41113;41.882;12.530;2022-09-20T14:21:26;100731.50;;;25.04;54.12
54948;BME280;41113;41.882;12.530;2022-09-20T14:28:46;100733.47;;;24.97;54.18
54948;BME280;41113;41.882;12.530;2022-09-20T14:31:23;100735.38;;;24.96;54.44
54948;BME280;41113;41.882;12.530;2022-09-20T14:33:55;100730.66;;;25.03;54.50
54948;BME280;41113;41.882;12.530;2022-09-20T14:36:26;100720.91;;;25.07;54.27
54948;BME280;41113;41.882;12.530;2022-09-20T14:38:58;100718.63;;;25.04;54.27
54948;BME280;41113;41.882;12.530;2022-09-20T14:41:52;100724.31;;;25.03;54.65
54948;BME280;41113;41.882;12.530;2022-09-20T14:44:33;100731.13;;;25.00;54.17
54948;BME280;41113;41.882;12.530;2022-09-20T14:47:14;100734.53;;;24.96;55.11
54948;BME280;41113;41.882;12.530;2022-09-20T14:49:42;100730.78;;;24.90;54.75
54948;BME280;41113;41.882;12.530;2022-09-20T14:57:29;100741.94;;;24.77;56.36
54948;BME280;41113;41.882;12.530;2022-09-20T14:59:56;100738.59;;;24.75;56.46
54948;BME280;41113;41.882;12.530;2022-09-20T15:02:23;100739.06;;;24.72;57.17
54948;BME280;41113;41.882;12.530;2022-09-20T15:04:52;100733.09;;;24.75;56.89
54948;BME280;41113;41.882;12.530;2022-09-20T15:07:18;100736.44;;;24.77;57.06
54948;BME280;41113;41.882;12.530;2022-09-20T15:09:44;100728.38;;;24.82;56.83
54948;BME280;41113;41.882;12.530;2022-09-20T15:12:20;100729.56;;;24.86;56.45
54948;BME280;41113;41.882;12.530;2022-09-20T15:14:46;100737.13;;;24.91;56.16
54948;BME280;41113;41.882;12.530;2022-09-20T15:17:21;100726.28;;;24.96;56.19
54948;BME280;41113;41.882;12.530;2022-09-20T15:19:48;100727.97;;;24.97;55.94
54948;BME280;41113;41.882;12.530;2022-09-20T15:22:14;100738.53;;;25.00;55.60
54948;BME280;41113;41.882;12.530;2022-09-20T15:24:40;100738.75;;;24.98;55.60
54948;BME280;41113;41.882;12.530;2022-09-20T15:27:06;100746.81;;;24.93;55.50
54948;BME280;41113;41.882;12.530;2022-09-20T15:29:32;100735.06;;;24.86;55.51
54948;BME280;41113;41.882;12.530;2022-09-20T15:31:57;100733.84;;;24.82;55.92
54948;BME280;41113;41.882;12.530;2022-09-20T15:34:23;100742.56;;;24.79;55.71
54948;BME280;41113;41.882;12.530;2022-09-20T15:36:49;100746.22;;;24.73;55.84
54948;BME280;41113;41.882;12.530;2022-09-20T15:39:15;100747.72;;;24.69;55.86
54948;BME280;41113;41.882;12.530;2022-09-20T15:41:40;100741.63;;;24.67;55.95
54948;BME280;41113;41.882;12.530;2022-09-20T15:44:07;100742.06;;;24.64;56.19
54948;BME280;41113;41.882;12.530;2022-09-20T15:46:33;100751.00;;;24.59;57.03
54948;BME280;41113;41.882;12.530;2022-09-20T15:49:00;100757.41;;;24.53;57.78
54948;BME280;41113;41.882;12.530;2022-09-20T15:51:27;100753.03;;;24.45;58.47
54948;BME280;41113;41.882;12.530;2022-09-20T15:53:59;100742.75;;;24.41;59.10
54948;BME280;41113;41.882;12.530;2022-09-20T15:56:30;100747.81;;;24.37;59.30
54948;BME280;41113;41.882;12.530;2022-09-20T15:58:57;100745.06;;;24.37;58.94
54948;BME280;41113;41.882;12.530;2022-09-20T16:01:25;100745.72;;;24.39;59.04
54948;BME280;41113;41.882;12.530;2022-09-20T16:03:52;100744.84;;;24.39;58.77
54948;BME280;41113;41.882;12.530;2022-09-20T16:06:17;100751.22;;;24.39;58.57
54948;BME280;41113;41.882;12.530;2022-09-20T16:08:43;100750.13;;;24.40;58.41
54948;BME280;41113;41.882;12.530;2022-09-20T16:11:12;100750.75;;;24.42;58.13
54948;BME280;41113;41.882;12.530;2022-09-20T16:13:38;100753.03;;;24.45;58.07
54948;BME280;41113;41.882;12.530;2022-09-20T16:16:05;100750.28;;;24.45;57.69
54948;BME280;41113;41.882;12.530;2022-09-20T16:18:31;100744.00;;;24.38;57.98
54948;BME280;41113;41.882;12.530;2022-09-20T16:21:17;100748.28;;;24.34;58.18
54948;BME280;41113;41.882;12.530;2022-09-20T16:23:50;100747.66;;;24.32;58.16
54948;BME280;41113;41.882;12.530;2022-09-20T16:26:17;100754.22;;;24.31;57.87
54948;BME280;41113;41.882;12.530;2022-09-20T16:28:44;100751.69;;;24.30;57.56
54948;BME280;41113;41.882;12.530;2022-09-20T16:31:30;100746.84;;;24.25;57.73
54948;BME280;41113;41.882;12.530;2022-09-20T16:34:03;100749.19;;;24.21;57.79
54948;BME280;41113;41.882;12.530;2022-09-20T16:36:30;100751.34;;;24.19;57.65
54948;BME280;41113;41.882;12.530;2022-09-20T16:38:56;100741.66;;;24.17;57.60
54948;BME280;41113;41.882;12.530;2022-09-20T16:41:24;100744.22;;;24.12;57.63
54948;BME280;41113;41.882;12.530;2022-09-20T16:43:50;100749.94;;;24.10;57.78
54948;BME280;41113;41.882;12.530;2022-09-20T16:46:17;100747.22;;;24.04;57.85
54948;BME280;41113;41.882;12.530;2022-09-20T16:48:47;100754.44;;;23.98;58.01
54948;BME280;41113;41.882;12.530;2022-09-20T16:51:14;100757.88;;;23.94;58.07
54948;BME280;41113;41.882;12.530;2022-09-20T16:53:40;100759.38;;;23.89;58.16
54948;BME280;41113;41.882;12.530;2022-09-20T16:56:06;100758.75;;;23.87;58.16
54948;BME280;41113;41.882;12.530;2022-09-20T16:58:32;100763.00;;;23.83;58.39
54948;BME280;41113;41.882;12.530;2022-09-20T17:01:06;100768.31;;;23.78;58.46
54948;BME280;41113;41.882;12.530;2022-09-20T17:03:33;100767.09;;;23.74;58.50
54948;BME280;41113;41.882;12.530;2022-09-20T17:06:03;100759.94;;;23.67;58.77
54948;BME280;41113;41.882;12.530;2022-09-20T17:08:30;100767.75;;;23.63;58.85
54948;BME280;41113;41.882;12.530;2022-09-20T17:10:59;100769.88;;;23.61;58.72
54948;BME280;41113;41.882;12.530;2022-09-20T17:13:28;100768.22;;;23.60;59.04
54948;BME280;41113;41.882;12.530;2022-09-20T17:16:04;100769.06;;;23.54;59.62
54948;BME280;41113;41.882;12.530;2022-09-20T17:18:30;100765.69;;;23.52;59.40
54948;BME280;41113;41.882;12.530;2022-09-20T17:21:04;100779.22;;;23.47;59.93
54948;BME280;41113;41.882;12.530;2022-09-20T17:23:31;100773.75;;;23.47;59.47
54948;BME280;41113;41.882;12.530;2022-09-20T17:26:05;100776.94;;;23.44;59.52
54948;BME280;41113;41.882;12.530;2022-09-20T17:28:39;100777.97;;;23.43;59.52
54948;BME280;41113;41.882;12.530;2022-09-20T17:31:06;100782.81;;;23.41;59.56
54948;BME280;41113;41.882;12.530;2022-09-20T17:33:34;100776.50;;;23.40;59.40
54948;BME280;41113;41.882;12.530;2022-09-20T17:36:00;100786.22;;;23.43;59.43
54948;BME280;41113;41.882;12.530;2022-09-20T17:38:28;100783.03;;;23.39;59.60
54948;BME280;41113;41.882;12.530;2022-09-20T17:41:28;100776.09;;;23.37;60.25
54948;BME280;41113;41.882;12.530;2022-09-20T17:43:57;100776.09;;;23.37;59.78
54948;BME280;41113;41.882;12.530;2022-09-20T17:46:28;100773.78;;;23.34;59.95
54948;BME280;41113;41.882;12.530;2022-09-20T17:49:01;100776.75;;;23.32;59.70
54948;BME280;41113;41.882;12.530;2022-09-20T17:51:27;100778.03;;;23.29;60.10
54948;BME280;41113;41.882;12.530;2022-09-20T17:53:54;100780.78;;;23.29;60.13
54948;BME280;41113;41.882;12.530;2022-09-20T17:56:21;100786.88;;;23.32;60.17